Chicago, Illinois
Traffic Map
Current Weather Conditions
Chicago, Illinois
Broken Clouds
Broken Clouds
47°
Feels Like: 42°
Wind Chill: 42° Ceiling: 7500
Heat Index: 47° Visibility: 10mi
Dew Point: 32° Wind: 12mph
Humidity: 56% Direction: 230° (SW)
Pressure: 29.63in Gusts: 0mph
Raw Report DataKMDW 210253Z 23010KT 10SM FEW055 BKN075 08/00 A2963 RMK AO2 RAB35E52 SLP035 P0000 60000 T00830000 51013
Traffic Incident Summary
Active as of:
Severity:
Category:
InformationThere was an issue retrieving the traffic information for this location. Please try a different location or try again shortly.
Advertisements
Track Severe Weather on mobile